Current | Forecast
Updated: 12:30 PM CEST on May 21, 2018
Observed at Vigo, Spain
Temperature 18°C
Humidity 64%
Dew Point 11°C
Wind Variable at 11 km/h
Pressure 1011 hPa (Steady)
Conditions Clear
Visibility -
UV N/A
Clouds
Yesterday's Maximum 22°C
Yesterday's Minimum 13°C approx.
Yesterday's Heating Degree Days 2 approx.
Sunrise7:07 AM CEST
Sunset9:56 PM CEST
Moon Rise1:17 PM CEST
Moon Set2:55 AM CEST
Moon PhaseMoon Phase
Waxing Crescent
Raw METARMETAR LEVX 211030Z VRB06KT CAVOK 18/11 Q1011 NOSIG


Monday
. High: 60° F.
Tuesday
. High: 59° F.
Wednesday
. High: 55° F.
Thursday
. High: 60° F.
Friday
. High: 68° F.
Saturday
. High: 57° F.
Sunday
. High: 68° F.
Monday
. High: 75° F.

Click here for Marine Information
Scientific forecaster discussion (NWS)

Units: English | Metric

Find the Weather for any City, State or Zipcode, or Country:

U.S. State List | Severe Weather | Tropical Storms | Ski Conditions
United States | Canada | Central America | South America | Asia | Europe | Australia | Africa | Islands

Weather Underground

© Copyright 2018
The Weather Company, LLC